Date,TemperatureHighF,TemperatureAvgF,TemperatureLowF,DewpointHighF,DewpointAvgF,DewpointLowF,HumidityHigh,HumidityAvg,HumidityLow,PressureMaxIn,PressureMinIn,WindSpeedMaxMPH,WindSpeedAvgMPH,GustSpeedMaxMPH,PrecipitationSumIn
2013-9-1,81.0,73.6,69.0,74.0,68.6,67.0,94,85,69,29.88,29.76,5,0,6,0.11
2013-9-2,81.0,72.2,65.0,72.0,67.7,62.0,93,86,67,29.81,29.65,9,0,10,0.96
2013-9-3,78.0,66.7,61.0,67.0,59.9,53.0,95,80,52,29.95,29.72,8,0,8,0.00
2013-9-4,81.0,68.2,56.0,62.0,55.8,51.0,93,67,42,30.02,29.86,9,0,11,0.01
2013-9-5,71.0,60.9,49.0,59.0,45.5,36.0,90,60,31,30.35,29.89,15,2,15,0.01
2013-9-6,69.0,55.0,40.0,48.0,43.4,38.0,91,68,38,30.36,30.13,11,1,11,0.00
2013-9-7,72.0,59.1,49.0,57.0,51.9,45.0,89,78,51,30.16,29.83,8,1,8,0.04
2013-9-8,69.0,60.5,45.0,61.0,46.5,38.0,92,64,34,30.31,29.83,15,1,15,0.00
2013-9-9,68.0,55.6,41.0,56.0,46.3,38.0,92,73,45,30.33,30.11,10,1,10,0.00
2013-9-10,74.0,65.9,55.0,70.0,62.3,50.0,93,88,82,30.17,30.05,7,0,8,0.25
2013-9-11,92.0,76.8,69.0,78.0,71.0,66.0,94,84,59,30.11,29.86,9,1,11,0.15
2013-9-12,85.0,71.6,67.0,73.0,67.7,63.0,93,88,63,29.91,29.56,10,1,11,0.30
2013-9-13,67.0,60.1,53.0,65.0,57.3,48.0,94,90,83,29.94,29.57,10,1,12,0.26
2013-9-14,65.0,56.1,46.0,53.0,48.2,40.0,88,76,56,30.19,29.85,9,0,10,0.00
2013-9-15,68.0,56.0,43.0,55.0,49.1,40.0,94,80,56,30.22,30.05,11,1,11,0.03
2013-9-16,63.0,53.3,42.0,59.0,47.1,33.0,93,80,62,30.50,30.04,15,1,16,0.03
2013-9-17,64.0,50.9,36.0,45.0,39.7,33.0,93,69,41,30.55,30.38,9,1,10,0.00
2013-9-18,70.0,56.3,39.0,51.0,46.6,37.0,94,73,48,30.40,30.17,9,1,10,0.00
2013-9-19,75.0,57.6,43.0,56.0,48.8,41.0,93,76,40,30.21,30.06,8,1,8,0.00
2013-9-20,78.0,60.4,47.0,59.0,52.2,45.0,93,77,44,30.11,29.87,8,1,10,0.00
2013-9-21,75.0,67.4,59.0,62.0,58.8,52.0,93,76,50,29.88,29.52,23,3,23,0.72
2013-9-22,67.0,57.1,46.0,60.0,48.5,37.0,95,75,49,30.04,29.53,11,1,11,0.16
2013-9-23,61.0,50.9,43.0,43.0,38.6,32.0,84,64,45,30.14,29.96,13,2,15,0.00
2013-9-24,66.0,50.9,35.0,48.0,41.4,32.0,92,72,49,30.13,29.93,6,0,8,0.00
2013-9-25,69.0,56.0,40.0,51.0,46.3,38.0,92,72,50,30.12,29.95,10,1,11,0.00
2013-9-26,65.0,54.4,44.0,50.0,45.5,41.0,91,74,52,30.30,30.05,11,1,13,0.00
2013-9-27,61.0,52.4,44.0,54.0,47.0,40.0,92,83,66,30.37,30.21,7,0,8,0.00
2013-9-28,67.0,45.7,42.0,55.0,43.4,40.0,94,92,67,30.39,30.21,3,0,3,0.00
2013-9-29,74.0,60.9,44.0,58.0,50.4,42.0,93,72,45,30.22,30.03,8,1,8,0.00
2013-9-30,73.0,55.3,44.0,57.0,48.0,42.0,93,79,44,30.09,29.93,6,0,7,0.00